sensor_id;sensor_type;location;lat;lon;timestamp;P1;durP1;ratioP1;P2;durP2;ratioP2
63690;SDS011;49837;57.280;27.070;2023-04-25T00:00:21;6.3;;;2.8;;
63690;SDS011;49837;57.280;27.070;2023-04-25T00:01:21;5.1;;;2.8;;
63690;SDS011;49837;57.280;27.070;2023-04-25T00:02:22;6.8;;;3.0;;
63690;SDS011;49837;57.280;27.070;2023-04-25T00:03:22;8.5;;;3.1;;
63690;SDS011;49837;57.280;27.070;2023-04-25T00:04:23;5.6;;;2.9;;
63690;SDS011;49837;57.280;27.070;2023-04-25T00:05:23;5.6;;;3.0;;
63690;SDS011;49837;57.280;27.070;2023-04-25T00:06:23;5.4;;;3.1;;
63690;SDS011;49837;57.280;27.070;2023-04-25T00:07:24;5.4;;;2.7;;
63690;SDS011;49837;57.280;27.070;2023-04-25T00:08:24;8.3;;;3.1;;
63690;SDS011;49837;57.280;27.070;2023-04-25T00:09:25;7.5;;;3.2;;
63690;SDS011;49837;57.280;27.070;2023-04-25T00:10:25;6.5;;;2.7;;
63690;SDS011;49837;57.280;27.070;2023-04-25T00:11:25;6.7;;;2.7;;
63690;SDS011;49837;57.280;27.070;2023-04-25T00:12:26;6.4;;;3.1;;
63690;SDS011;49837;57.280;27.070;2023-04-25T00:13:26;37.3;;;26.8;;
63690;SDS011;49837;57.280;27.070;2023-04-25T00:14:27;32.3;;;22.1;;
63690;SDS011;49837;57.280;27.070;2023-04-25T00:15:27;15.0;;;9.9;;
63690;SDS011;49837;57.280;27.070;2023-04-25T00:16:28;10.4;;;5.3;;
63690;SDS011;49837;57.280;27.070;2023-04-25T00:17:28;7.5;;;4.4;;
63690;SDS011;49837;57.280;27.070;2023-04-25T00:18:28;6.5;;;3.2;;
63690;SDS011;49837;57.280;27.070;2023-04-25T00:19:29;6.8;;;3.0;;
63690;SDS011;49837;57.280;27.070;2023-04-25T00:20:29;8.8;;;3.3;;
63690;SDS011;49837;57.280;27.070;2023-04-25T00:21:30;13.1;;;3.0;;
63690;SDS011;49837;57.280;27.070;2023-04-25T00:22:30;5.7;;;2.7;;
63690;SDS011;49837;57.280;27.070;2023-04-25T00:23:31;6.5;;;3.1;;
63690;SDS011;49837;57.280;27.070;2023-04-25T00:24:31;3.8;;;2.7;;
63690;SDS011;49837;57.280;27.070;2023-04-25T00:25:32;8.6;;;3.0;;
63690;SDS011;49837;57.280;27.070;2023-04-25T00:26:33;7.9;;;2.8;;
63690;SDS011;49837;57.280;27.070;2023-04-25T00:27:32;5.9;;;3.2;;
63690;SDS011;49837;57.280;27.070;2023-04-25T00:28:33;6.9;;;2.9;;
63690;SDS011;49837;57.280;27.070;2023-04-25T00:29:33;9.6;;;3.0;;
63690;SDS011;49837;57.280;27.070;2023-04-25T00:30:34;6.4;;;3.1;;
63690;SDS011;49837;57.280;27.070;2023-04-25T00:31:34;6.5;;;2.8;;
63690;SDS011;49837;57.280;27.070;2023-04-25T00:32:35;7.2;;;3.0;;
63690;SDS011;49837;57.280;27.070;2023-04-25T00:33:35;8.3;;;2.9;;
63690;SDS011;49837;57.280;27.070;2023-04-25T00:34:35;5.2;;;2.7;;
63690;SDS011;49837;57.280;27.070;2023-04-25T00:35:36;5.8;;;2.8;;
63690;SDS011;49837;57.280;27.070;2023-04-25T00:36:36;4.4;;;2.7;;
63690;SDS011;49837;57.280;27.070;2023-04-25T00:37:37;6.6;;;3.0;;
63690;SDS011;49837;57.280;27.070;2023-04-25T00:38:37;7.5;;;2.9;;
63690;SDS011;49837;57.280;27.070;2023-04-25T00:39:38;6.9;;;3.1;;
63690;SDS011;49837;57.280;27.070;2023-04-25T00:40:38;7.9;;;3.1;;
63690;SDS011;49837;57.280;27.070;2023-04-25T00:41:38;4.0;;;2.5;;
63690;SDS011;49837;57.280;27.070;2023-04-25T00:42:39;5.4;;;3.0;;
63690;SDS011;49837;57.280;27.070;2023-04-25T00:43:39;6.9;;;3.4;;
63690;SDS011;49837;57.280;27.070;2023-04-25T00:44:40;7.4;;;3.4;;
63690;SDS011;49837;57.280;27.070;2023-04-25T00:45:41;8.0;;;3.5;;
63690;SDS011;49837;57.280;27.070;2023-04-25T00:46:41;7.3;;;3.1;;
63690;SDS011;49837;57.280;27.070;2023-04-25T00:47:41;7.6;;;3.0;;
63690;SDS011;49837;57.280;27.070;2023-04-25T00:48:42;5.7;;;3.2;;
63690;SDS011;49837;57.280;27.070;2023-04-25T00:49:42;9.0;;;3.4;;
63690;SDS011;49837;57.280;27.070;2023-04-25T00:50:45;5.8;;;3.4;;
63690;SDS011;49837;57.280;27.070;2023-04-25T00:51:47;10.5;;;3.5;;
63690;SDS011;49837;57.280;27.070;2023-04-25T00:52:47;9.4;;;3.3;;
63690;SDS011;49837;57.280;27.070;2023-04-25T00:53:48;8.5;;;3.6;;
63690;SDS011;49837;57.280;27.070;2023-04-25T00:54:48;7.5;;;3.5;;
63690;SDS011;49837;57.280;27.070;2023-04-25T00:55:49;7.1;;;3.5;;
63690;SDS011;49837;57.280;27.070;2023-04-25T00:56:49;9.0;;;3.8;;
63690;SDS011;49837;57.280;27.070;2023-04-25T00:57:49;8.6;;;4.0;;
63690;SDS011;49837;57.280;27.070;2023-04-25T00:58:50;8.2;;;3.8;;
63690;SDS011;49837;57.280;27.070;2023-04-25T00:59:51;7.1;;;3.1;;
63690;SDS011;49837;57.280;27.070;2023-04-25T01:00:51;8.0;;;3.3;;
63690;SDS011;49837;57.280;27.070;2023-04-25T01:01:51;7.7;;;3.2;;
63690;SDS011;49837;57.280;27.070;2023-04-25T01:02:52;5.2;;;2.9;;
63690;SDS011;49837;57.280;27.070;2023-04-25T01:03:52;9.3;;;3.7;;
63690;SDS011;49837;57.280;27.070;2023-04-25T01:04:52;6.9;;;3.2;;
63690;SDS011;49837;57.280;27.070;2023-04-25T01:05:53;5.2;;;3.2;;
63690;SDS011;49837;57.280;27.070;2023-04-25T01:06:53;6.8;;;3.4;;
63690;SDS011;49837;57.280;27.070;2023-04-25T01:07:54;8.9;;;3.3;;
63690;SDS011;49837;57.280;27.070;2023-04-25T01:08:54;8.8;;;3.1;;
63690;SDS011;49837;57.280;27.070;2023-04-25T01:09:54;10.7;;;2.9;;
63690;SDS011;49837;57.280;27.070;2023-04-25T01:10:55;8.7;;;3.1;;
63690;SDS011;49837;57.280;27.070;2023-04-25T01:11:55;6.7;;;3.3;;
63690;SDS011;49837;57.280;27.070;2023-04-25T01:12:56;5.9;;;3.0;;
63690;SDS011;49837;57.280;27.070;2023-04-25T01:13:56;9.2;;;3.3;;
63690;SDS011;49837;57.280;27.070;2023-04-25T01:14:57;5.1;;;2.8;;
63690;SDS011;49837;57.280;27.070;2023-04-25T01:15:58;5.5;;;3.2;;
63690;SDS011;49837;57.280;27.070;2023-04-25T01:16:57;4.4;;;2.9;;
63690;SDS011;49837;57.280;27.070;2023-04-25T01:17:58;7.6;;;3.2;;
63690;SDS011;49837;57.280;27.070;2023-04-25T01:18:59;5.2;;;2.9;;
63690;SDS011;49837;57.280;27.070;2023-04-25T01:19:59;7.8;;;3.2;;
63690;SDS011;49837;57.280;27.070;2023-04-25T01:21:06;10.1;;;3.1;;
63690;SDS011;49837;57.280;27.070;2023-04-25T01:22:03;7.8;;;3.2;;
63690;SDS011;49837;57.280;27.070;2023-04-25T01:23:03;5.6;;;3.3;;
63690;SDS011;49837;57.280;27.070;2023-04-25T01:24:03;6.2;;;3.0;;
63690;SDS011;49837;57.280;27.070;2023-04-25T01:25:04;7.6;;;3.2;;
63690;SDS011;49837;57.280;27.070;2023-04-25T01:26:04;6.2;;;3.0;;
63690;SDS011;49837;57.280;27.070;2023-04-25T01:27:04;7.4;;;3.3;;
63690;SDS011;49837;57.280;27.070;2023-04-25T01:28:05;7.6;;;3.1;;
63690;SDS011;49837;57.280;27.070;2023-04-25T01:29:06;6.3;;;3.1;;
63690;SDS011;49837;57.280;27.070;2023-04-25T01:30:06;5.4;;;3.1;;
63690;SDS011;49837;57.280;27.070;2023-04-25T01:31:06;5.5;;;3.0;;
63690;SDS011;49837;57.280;27.070;2023-04-25T01:32:07;4.7;;;3.0;;
63690;SDS011;49837;57.280;27.070;2023-04-25T01:33:08;8.5;;;3.5;;
63690;SDS011;49837;57.280;27.070;2023-04-25T01:34:07;9.0;;;3.3;;
63690;SDS011;49837;57.280;27.070;2023-04-25T01:35:09;8.9;;;3.5;;
63690;SDS011;49837;57.280;27.070;2023-04-25T01:36:08;10.0;;;3.7;;
63690;SDS011;49837;57.280;27.070;2023-04-25T01:37:09;6.7;;;3.2;;
63690;SDS011;49837;57.280;27.070;2023-04-25T01:38:09;7.3;;;3.2;;
63690;SDS011;49837;57.280;27.070;2023-04-25T01:39:09;6.7;;;3.1;;
63690;SDS011;49837;57.280;27.070;2023-04-25T01:40:11;9.4;;;3.1;;
63690;SDS011;49837;57.280;27.070;2023-04-25T01:41:10;7.0;;;3.1;;
63690;SDS011;49837;57.280;27.070;2023-04-25T01:42:11;7.5;;;3.4;;
63690;SDS011;49837;57.280;27.070;2023-04-25T01:43:11;9.1;;;3.7;;
63690;SDS011;49837;57.280;27.070;2023-04-25T01:44:12;10.2;;;3.5;;
63690;SDS011;49837;57.280;27.070;2023-04-25T01:45:12;6.3;;;3.0;;
63690;SDS011;49837;57.280;27.070;2023-04-25T01:46:12;6.1;;;3.4;;
63690;SDS011;49837;57.280;27.070;2023-04-25T01:47:13;5.4;;;3.1;;
63690;SDS011;49837;57.280;27.070;2023-04-25T01:48:13;5.3;;;3.0;;
63690;SDS011;49837;57.280;27.070;2023-04-25T01:49:14;5.3;;;3.0;;
63690;SDS011;49837;57.280;27.070;2023-04-25T01:50:15;7.8;;;3.4;;
63690;SDS011;49837;57.280;27.070;2023-04-25T01:51:15;6.2;;;3.4;;
63690;SDS011;49837;57.280;27.070;2023-04-25T01:52:15;5.1;;;3.1;;
63690;SDS011;49837;57.280;27.070;2023-04-25T01:53:15;9.9;;;3.3;;
63690;SDS011;49837;57.280;27.070;2023-04-25T01:54:16;11.8;;;3.4;;
63690;SDS011;49837;57.280;27.070;2023-04-25T01:55:16;7.8;;;3.0;;
63690;SDS011;49837;57.280;27.070;2023-04-25T01:56:18;8.2;;;3.2;;
63690;SDS011;49837;57.280;27.070;2023-04-25T01:57:17;5.0;;;3.2;;
63690;SDS011;49837;57.280;27.070;2023-04-25T01:58:17;4.8;;;2.9;;
63690;SDS011;49837;57.280;27.070;2023-04-25T01:59:18;6.3;;;3.0;;
63690;SDS011;49837;57.280;27.070;2023-04-25T02:00:18;7.3;;;3.2;;
63690;SDS011;49837;57.280;27.070;2023-04-25T02:01:19;9.5;;;3.4;;
63690;SDS011;49837;57.280;27.070;2023-04-25T02:02:19;9.2;;;3.5;;
63690;SDS011;49837;57.280;27.070;2023-04-25T02:03:20;8.6;;;3.3;;
63690;SDS011;49837;57.280;27.070;2023-04-25T02:04:20;8.3;;;3.2;;
63690;SDS011;49837;57.280;27.070;2023-04-25T02:05:20;5.6;;;3.0;;
63690;SDS011;49837;57.280;27.070;2023-04-25T02:06:21;7.5;;;3.2;;
63690;SDS011;49837;57.280;27.070;2023-04-25T02:07:21;6.4;;;3.1;;
63690;SDS011;49837;57.280;27.070;2023-04-25T02:08:22;6.0;;;3.4;;
63690;SDS011;49837;57.280;27.070;2023-04-25T02:09:22;9.7;;;3.5;;
63690;SDS011;49837;57.280;27.070;2023-04-25T02:10:22;26.0;;;5.2;;
63690;SDS011;49837;57.280;27.070;2023-04-25T02:11:23;22.4;;;3.9;;
63690;SDS011;49837;57.280;27.070;2023-04-25T02:12:23;28.3;;;4.4;;
63690;SDS011;49837;57.280;27.070;2023-04-25T02:13:24;18.8;;;4.0;;
63690;SDS011;49837;57.280;27.070;2023-04-25T02:14:24;20.4;;;4.2;;
63690;SDS011;49837;57.280;27.070;2023-04-25T02:15:25;22.9;;;5.0;;
63690;SDS011;49837;57.280;27.070;2023-04-25T02:16:25;23.5;;;4.4;;
63690;SDS011;49837;57.280;27.070;2023-04-25T02:17:25;18.3;;;4.1;;
63690;SDS011;49837;57.280;27.070;2023-04-25T02:18:26;13.5;;;3.6;;
63690;SDS011;49837;57.280;27.070;2023-04-25T02:19:26;12.9;;;3.6;;
63690;SDS011;49837;57.280;27.070;2023-04-25T02:20:29;10.9;;;3.3;;
63690;SDS011;49837;57.280;27.070;2023-04-25T02:21:27;9.4;;;3.2;;
63690;SDS011;49837;57.280;27.070;2023-04-25T02:22:27;5.4;;;3.2;;
63690;SDS011;49837;57.280;27.070;2023-04-25T02:23:28;6.8;;;2.9;;
63690;SDS011;49837;57.280;27.070;2023-04-25T02:24:28;9.8;;;3.6;;
63690;SDS011;49837;57.280;27.070;2023-04-25T02:25:29;10.5;;;3.4;;
63690;SDS011;49837;57.280;27.070;2023-04-25T02:26:29;6.7;;;3.3;;
63690;SDS011;49837;57.280;27.070;2023-04-25T02:27:30;7.1;;;3.0;;
63690;SDS011;49837;57.280;27.070;2023-04-25T02:28:30;7.7;;;3.3;;
63690;SDS011;49837;57.280;27.070;2023-04-25T02:29:30;6.7;;;3.2;;
63690;SDS011;49837;57.280;27.070;2023-04-25T02:30:31;8.2;;;3.3;;
63690;SDS011;49837;57.280;27.070;2023-04-25T02:31:31;4.1;;;2.7;;
63690;SDS011;49837;57.280;27.070;2023-04-25T02:32:32;12.3;;;3.5;;
63690;SDS011;49837;57.280;27.070;2023-04-25T02:33:32;5.2;;;3.0;;
63690;SDS011;49837;57.280;27.070;2023-04-25T02:34:32;7.7;;;3.1;;
63690;SDS011;49837;57.280;27.070;2023-04-25T02:35:33;5.4;;;3.2;;
63690;SDS011;49837;57.280;27.070;2023-04-25T02:36:33;5.1;;;2.8;;
63690;SDS011;49837;57.280;27.070;2023-04-25T02:37:34;7.7;;;3.3;;
63690;SDS011;49837;57.280;27.070;2023-04-25T02:38:34;7.3;;;3.1;;
63690;SDS011;49837;57.280;27.070;2023-04-25T02:39:34;8.8;;;3.2;;
63690;SDS011;49837;57.280;27.070;2023-04-25T02:40:35;7.2;;;3.0;;
63690;SDS011;49837;57.280;27.070;2023-04-25T02:41:35;6.4;;;3.1;;
63690;SDS011;49837;57.280;27.070;2023-04-25T02:42:36;6.5;;;3.1;;
63690;SDS011;49837;57.280;27.070;2023-04-25T02:43:36;4.7;;;3.1;;
63690;SDS011;49837;57.280;27.070;2023-04-25T02:44:37;8.0;;;3.2;;
63690;SDS011;49837;57.280;27.070;2023-04-25T02:45:37;8.3;;;3.2;;
63690;SDS011;49837;57.280;27.070;2023-04-25T02:46:37;5.7;;;3.0;;
63690;SDS011;49837;57.280;27.070;2023-04-25T02:47:38;8.5;;;3.0;;
63690;SDS011;49837;57.280;27.070;2023-04-25T02:48:38;5.4;;;3.2;;
63690;SDS011;49837;57.280;27.070;2023-04-25T02:49:39;8.5;;;3.1;;
63690;SDS011;49837;57.280;27.070;2023-04-25T02:50:39;7.3;;;3.2;;
63690;SDS011;49837;57.280;27.070;2023-04-25T02:51:39;6.8;;;3.7;;
63690;SDS011;49837;57.280;27.070;2023-04-25T02:52:40;4.6;;;3.1;;
63690;SDS011;49837;57.280;27.070;2023-04-25T02:53:40;4.3;;;2.9;;
63690;SDS011;49837;57.280;27.070;2023-04-25T02:54:41;8.2;;;2.9;;
63690;SDS011;49837;57.280;27.070;2023-04-25T02:55:41;8.3;;;3.1;;
63690;SDS011;49837;57.280;27.070;2023-04-25T02:56:42;5.1;;;2.9;;
63690;SDS011;49837;57.280;27.070;2023-04-25T02:57:42;6.7;;;3.1;;
63690;SDS011;49837;57.280;27.070;2023-04-25T02:58:42;7.9;;;3.1;;
63690;SDS011;49837;57.280;27.070;2023-04-25T02:59:43;5.0;;;3.1;;
63690;SDS011;49837;57.280;27.070;2023-04-25T03:00:43;7.2;;;2.8;;
63690;SDS011;49837;57.280;27.070;2023-04-25T03:01:43;7.0;;;3.2;;
63690;SDS011;49837;57.280;27.070;2023-04-25T03:02:44;5.7;;;3.3;;
63690;SDS011;49837;57.280;27.070;2023-04-25T03:03:44;6.0;;;3.2;;
63690;SDS011;49837;57.280;27.070;2023-04-25T03:04:45;8.2;;;3.8;;
63690;SDS011;49837;57.280;27.070;2023-04-25T03:05:45;7.1;;;3.8;;
63690;SDS011;49837;57.280;27.070;2023-04-25T03:06:45;8.5;;;4.4;;
63690;SDS011;49837;57.280;27.070;2023-04-25T03:07:46;8.0;;;4.5;;
63690;SDS011;49837;57.280;27.070;2023-04-25T03:08:46;12.2;;;4.6;;
63690;SDS011;49837;57.280;27.070;2023-04-25T03:09:47;9.0;;;4.7;;
63690;SDS011;49837;57.280;27.070;2023-04-25T03:10:47;9.2;;;4.5;;
63690;SDS011;49837;57.280;27.070;2023-04-25T03:11:47;6.4;;;4.0;;
63690;SDS011;49837;57.280;27.070;2023-04-25T03:12:48;6.5;;;3.9;;
63690;SDS011;49837;57.280;27.070;2023-04-25T03:13:48;8.5;;;4.1;;
63690;SDS011;49837;57.280;27.070;2023-04-25T03:14:49;11.4;;;5.3;;
63690;SDS011;49837;57.280;27.070;2023-04-25T03:15:49;7.2;;;4.7;;
63690;SDS011;49837;57.280;27.070;2023-04-25T03:16:49;10.2;;;4.9;;
63690;SDS011;49837;57.280;27.070;2023-04-25T03:17:50;14.1;;;5.5;;
63690;SDS011;49837;57.280;27.070;2023-04-25T03:18:50;20.6;;;4.9;;
63690;SDS011;49837;57.280;27.070;2023-04-25T03:19:51;11.5;;;4.9;;
63690;SDS011;49837;57.280;27.070;2023-04-25T03:20:51;13.5;;;4.8;;
63690;SDS011;49837;57.280;27.070;2023-04-25T03:21:51;10.9;;;4.9;;
63690;SDS011;49837;57.280;27.070;2023-04-25T03:22:52;11.6;;;4.8;;
63690;SDS011;49837;57.280;27.070;2023-04-25T03:23:52;18.2;;;5.1;;
63690;SDS011;49837;57.280;27.070;2023-04-25T03:24:53;15.9;;;4.5;;
63690;SDS011;49837;57.280;27.070;2023-04-25T03:25:53;13.8;;;5.9;;
63690;SDS011;49837;57.280;27.070;2023-04-25T03:26:53;30.7;;;6.1;;
63690;SDS011;49837;57.280;27.070;2023-04-25T03:27:54;21.4;;;6.2;;
63690;SDS011;49837;57.280;27.070;2023-04-25T03:28:54;15.7;;;6.2;;
63690;SDS011;49837;57.280;27.070;2023-04-25T03:29:55;15.0;;;6.1;;
63690;SDS011;49837;57.280;27.070;2023-04-25T03:30:55;11.2;;;5.7;;
63690;SDS011;49837;57.280;27.070;2023-04-25T03:31:55;9.8;;;6.1;;
63690;SDS011;49837;57.280;27.070;2023-04-25T03:32:56;13.9;;;6.2;;
63690;SDS011;49837;57.280;27.070;2023-04-25T03:33:56;10.9;;;5.9;;
63690;SDS011;49837;57.280;27.070;2023-04-25T03:34:57;12.0;;;5.9;;
63690;SDS011;49837;57.280;27.070;2023-04-25T03:35:57;17.6;;;5.9;;
63690;SDS011;49837;57.280;27.070;2023-04-25T03:36:57;13.3;;;5.1;;
63690;SDS011;49837;57.280;27.070;2023-04-25T03:37:58;18.2;;;5.5;;
63690;SDS011;49837;57.280;27.070;2023-04-25T03:38:58;17.3;;;5.2;;
63690;SDS011;49837;57.280;27.070;2023-04-25T03:39:59;14.3;;;5.4;;
63690;SDS011;49837;57.280;27.070;2023-04-25T03:40:59;15.1;;;5.1;;
63690;SDS011;49837;57.280;27.070;2023-04-25T03:41:59;12.8;;;4.6;;
63690;SDS011;49837;57.280;27.070;2023-04-25T03:43:00;15.9;;;4.5;;
63690;SDS011;49837;57.280;27.070;2023-04-25T03:44:00;8.3;;;4.2;;
63690;SDS011;49837;57.280;27.070;2023-04-25T03:45:01;9.0;;;4.6;;
63690;SDS011;49837;57.280;27.070;2023-04-25T03:46:01;11.6;;;4.3;;
63690;SDS011;49837;57.280;27.070;2023-04-25T03:47:01;7.6;;;4.5;;
63690;SDS011;49837;57.280;27.070;2023-04-25T03:48:02;19.5;;;4.9;;
63690;SDS011;49837;57.280;27.070;2023-04-25T03:49:02;25.1;;;5.2;;
63690;SDS011;49837;57.280;27.070;2023-04-25T03:50:03;20.1;;;4.8;;
63690;SDS011;49837;57.280;27.070;2023-04-25T03:51:03;9.6;;;4.2;;
63690;SDS011;49837;57.280;27.070;2023-04-25T03:52:03;20.6;;;5.3;;
63690;SDS011;49837;57.280;27.070;2023-04-25T03:53:04;71.0;;;10.0;;
63690;SDS011;49837;57.280;27.070;2023-04-25T03:54:04;47.0;;;7.0;;
63690;SDS011;49837;57.280;27.070;2023-04-25T03:55:05;11.4;;;4.3;;
63690;SDS011;49837;57.280;27.070;2023-04-25T03:56:05;10.9;;;4.7;;
63690;SDS011;49837;57.280;27.070;2023-04-25T03:57:06;10.3;;;4.1;;
63690;SDS011;49837;57.280;27.070;2023-04-25T03:58:06;7.0;;;3.9;;
63690;SDS011;49837;57.280;27.070;2023-04-25T03:59:06;8.4;;;3.8;;
63690;SDS011;49837;57.280;27.070;2023-04-25T04:00:07;14.0;;;4.5;;
63690;SDS011;49837;57.280;27.070;2023-04-25T04:01:07;9.4;;;4.0;;
63690;SDS011;49837;57.280;27.070;2023-04-25T04:02:07;7.6;;;4.3;;
63690;SDS011;49837;57.280;27.070;2023-04-25T04:03:08;9.4;;;4.3;;
63690;SDS011;49837;57.280;27.070;2023-04-25T04:04:08;33.3;;;6.8;;
63690;SDS011;49837;57.280;27.070;2023-04-25T04:05:09;13.1;;;4.7;;
63690;SDS011;49837;57.280;27.070;2023-04-25T04:06:09;14.4;;;6.0;;
63690;SDS011;49837;57.280;27.070;2023-04-25T04:07:09;31.1;;;15.8;;
63690;SDS011;49837;57.280;27.070;2023-04-25T04:08:10;55.0;;;26.8;;
63690;SDS011;49837;57.280;27.070;2023-04-25T04:09:10;90.7;;;45.8;;
63690;SDS011;49837;57.280;27.070;2023-04-25T04:10:11;77.3;;;40.4;;
63690;SDS011;49837;57.280;27.070;2023-04-25T04:11:11;87.0;;;47.5;;
63690;SDS011;49837;57.280;27.070;2023-04-25T04:12:11;84.1;;;40.8;;
63690;SDS011;49837;57.280;27.070;2023-04-25T04:13:12;76.1;;;37.9;;
63690;SDS011;49837;57.280;27.070;2023-04-25T04:14:12;67.0;;;32.6;;
63690;SDS011;49837;57.280;27.070;2023-04-25T04:15:13;58.3;;;25.3;;
63690;SDS011;49837;57.280;27.070;2023-04-25T04:16:13;51.7;;;23.4;;
63690;SDS011;49837;57.280;27.070;2023-04-25T04:17:13;42.8;;;16.8;;
63690;SDS011;49837;57.280;27.070;2023-04-25T04:18:14;33.0;;;11.0;;
63690;SDS011;49837;57.280;27.070;2023-04-25T04:19:14;44.6;;;8.0;;
63690;SDS011;49837;57.280;27.070;2023-04-25T04:20:15;42.6;;;7.4;;
63690;SDS011;49837;57.280;27.070;2023-04-25T04:21:15;34.5;;;6.8;;
63690;SDS011;49837;57.280;27.070;2023-04-25T04:22:15;32.9;;;6.0;;
63690;SDS011;49837;57.280;27.070;2023-04-25T04:23:16;51.2;;;7.4;;
63690;SDS011;49837;57.280;27.070;2023-04-25T04:24:16;35.1;;;8.3;;
63690;SDS011;49837;57.280;27.070;2023-04-25T04:25:17;37.7;;;7.7;;
63690;SDS011;49837;57.280;27.070;2023-04-25T04:26:17;29.2;;;6.1;;
63690;SDS011;49837;57.280;27.070;2023-04-25T04:27:18;24.2;;;6.0;;
63690;SDS011;49837;57.280;27.070;2023-04-25T04:28:18;22.3;;;5.5;;
63690;SDS011;49837;57.280;27.070;2023-04-25T04:29:18;14.0;;;5.5;;
63690;SDS011;49837;57.280;27.070;2023-04-25T04:30:19;20.3;;;5.4;;
63690;SDS011;49837;57.280;27.070;2023-04-25T04:31:22;23.1;;;5.7;;
63690;SDS011;49837;57.280;27.070;2023-04-25T04:32:20;24.9;;;7.1;;
63690;SDS011;49837;57.280;27.070;2023-04-25T04:33:20;29.6;;;8.1;;
63690;SDS011;49837;57.280;27.070;2023-04-25T04:34:20;49.1;;;9.6;;
63690;SDS011;49837;57.280;27.070;2023-04-25T04:35:21;58.7;;;10.7;;
63690;SDS011;49837;57.280;27.070;2023-04-25T04:36:21;66.7;;;10.0;;
63690;SDS011;49837;57.280;27.070;2023-04-25T04:37:22;55.1;;;8.7;;
63690;SDS011;49837;57.280;27.070;2023-04-25T04:38:22;93.2;;;11.3;;
63690;SDS011;49837;57.280;27.070;2023-04-25T04:39:22;79.4;;;10.8;;
63690;SDS011;49837;57.280;27.070;2023-04-25T04:40:23;59.9;;;9.7;;
63690;SDS011;49837;57.280;27.070;2023-04-25T04:41:23;54.5;;;8.6;;
63690;SDS011;49837;57.280;27.070;2023-04-25T04:42:24;43.9;;;8.5;;
63690;SDS011;49837;57.280;27.070;2023-04-25T04:43:24;47.7;;;7.9;;
63690;SDS011;49837;57.280;27.070;2023-04-25T04:44:25;31.0;;;7.6;;
63690;SDS011;49837;57.280;27.070;2023-04-25T04:45:25;31.7;;;7.0;;
63690;SDS011;49837;57.280;27.070;2023-04-25T04:46:25;52.4;;;7.8;;
63690;SDS011;49837;57.280;27.070;2023-04-25T04:47:26;42.4;;;7.7;;
63690;SDS011;49837;57.280;27.070;2023-04-25T04:48:26;61.7;;;8.4;;
63690;SDS011;49837;57.280;27.070;2023-04-25T04:49:27;44.0;;;7.9;;
63690;SDS011;49837;57.280;27.070;2023-04-25T04:50:27;43.3;;;7.4;;
63690;SDS011;49837;57.280;27.070;2023-04-25T04:51:27;29.8;;;6.7;;
63690;SDS011;49837;57.280;27.070;2023-04-25T04:52:28;40.0;;;8.8;;
63690;SDS011;49837;57.280;27.070;2023-04-25T04:53:28;25.1;;;6.3;;
63690;SDS011;49837;57.280;27.070;2023-04-25T04:54:29;37.7;;;8.0;;
63690;SDS011;49837;57.280;27.070;2023-04-25T04:55:29;24.5;;;6.1;;
63690;SDS011;49837;57.280;27.070;2023-04-25T04:56:30;21.1;;;5.2;;
63690;SDS011;49837;57.280;27.070;2023-04-25T04:57:30;16.1;;;4.4;;
63690;SDS011;49837;57.280;27.070;2023-04-25T04:58:30;16.1;;;4.4;;
63690;SDS011;49837;57.280;27.070;2023-04-25T04:59:31;14.2;;;4.0;;
63690;SDS011;49837;57.280;27.070;2023-04-25T05:00:31;13.6;;;4.0;;
63690;SDS011;49837;57.280;27.070;2023-04-25T05:01:31;7.9;;;3.9;;
63690;SDS011;49837;57.280;27.070;2023-04-25T05:02:32;7.0;;;3.8;;
63690;SDS011;49837;57.280;27.070;2023-04-25T05:03:32;9.0;;;3.7;;
63690;SDS011;49837;57.280;27.070;2023-04-25T05:04:33;7.5;;;3.8;;
63690;SDS011;49837;57.280;27.070;2023-04-25T05:05:33;11.7;;;4.4;;
63690;SDS011;49837;57.280;27.070;2023-04-25T05:06:34;9.6;;;3.7;;
63690;SDS011;49837;57.280;27.070;2023-04-25T05:07:34;8.1;;;3.9;;
63690;SDS011;49837;57.280;27.070;2023-04-25T05:08:34;10.3;;;4.7;;
63690;SDS011;49837;57.280;27.070;2023-04-25T05:09:35;13.5;;;4.1;;
63690;SDS011;49837;57.280;27.070;2023-04-25T05:10:35;12.4;;;3.9;;
63690;SDS011;49837;57.280;27.070;2023-04-25T05:11:36;10.1;;;3.8;;
63690;SDS011;49837;57.280;27.070;2023-04-25T05:12:36;14.6;;;3.8;;
63690;SDS011;49837;57.280;27.070;2023-04-25T05:13:37;36.7;;;5.3;;
63690;SDS011;49837;57.280;27.070;2023-04-25T05:14:37;90.6;;;9.1;;
63690;SDS011;49837;57.280;27.070;2023-04-25T05:15:38;34.6;;;5.0;;
63690;SDS011;49837;57.280;27.070;2023-04-25T05:16:38;26.0;;;5.2;;
63690;SDS011;49837;57.280;27.070;2023-04-25T05:17:39;19.1;;;4.1;;
63690;SDS011;49837;57.280;27.070;2023-04-25T05:18:39;16.5;;;4.2;;
63690;SDS011;49837;57.280;27.070;2023-04-25T05:19:40;18.1;;;4.0;;
63690;SDS011;49837;57.280;27.070;2023-04-25T05:20:40;28.4;;;4.8;;
63690;SDS011;49837;57.280;27.070;2023-04-25T05:21:40;25.4;;;4.1;;
63690;SDS011;49837;57.280;27.070;2023-04-25T05:22:41;13.4;;;4.0;;
63690;SDS011;49837;57.280;27.070;2023-04-25T05:23:41;18.6;;;4.0;;
63690;SDS011;49837;57.280;27.070;2023-04-25T05:24:42;9.9;;;3.6;;
63690;SDS011;49837;57.280;27.070;2023-04-25T05:25:42;10.7;;;3.7;;
63690;SDS011;49837;57.280;27.070;2023-04-25T05:26:43;19.1;;;4.3;;
63690;SDS011;49837;57.280;27.070;2023-04-25T05:27:43;14.7;;;3.7;;
63690;SDS011;49837;57.280;27.070;2023-04-25T05:28:43;16.9;;;3.9;;
63690;SDS011;49837;57.280;27.070;2023-04-25T05:29:44;10.7;;;4.0;;
63690;SDS011;49837;57.280;27.070;2023-04-25T05:30:44;10.6;;;4.2;;
63690;SDS011;49837;57.280;27.070;2023-04-25T05:31:45;10.4;;;4.1;;
63690;SDS011;49837;57.280;27.070;2023-04-25T05:32:46;8.8;;;4.0;;
63690;SDS011;49837;57.280;27.070;2023-04-25T05:33:46;11.1;;;4.1;;
63690;SDS011;49837;57.280;27.070;2023-04-25T05:34:47;8.3;;;3.3;;
63690;SDS011;49837;57.280;27.070;2023-04-25T05:35:47;8.6;;;4.5;;
63690;SDS011;49837;57.280;27.070;2023-04-25T05:36:47;14.0;;;4.8;;
63690;SDS011;49837;57.280;27.070;2023-04-25T05:37:48;9.4;;;3.9;;
63690;SDS011;49837;57.280;27.070;2023-04-25T05:38:48;13.6;;;4.6;;
63690;SDS011;49837;57.280;27.070;2023-04-25T05:39:49;11.7;;;4.1;;
63690;SDS011;49837;57.280;27.070;2023-04-25T05:40:49;9.0;;;3.7;;
63690;SDS011;49837;57.280;27.070;2023-04-25T05:41:50;20.9;;;3.9;;
63690;SDS011;49837;57.280;27.070;2023-04-25T05:42:50;13.2;;;4.2;;
63690;SDS011;49837;57.280;27.070;2023-04-25T05:43:51;8.8;;;3.5;;
63690;SDS011;49837;57.280;27.070;2023-04-25T05:44:52;14.5;;;3.5;;
63690;SDS011;49837;57.280;27.070;2023-04-25T05:45:52;6.2;;;3.7;;
63690;SDS011;49837;57.280;27.070;2023-04-25T05:46:52;5.9;;;3.1;;
63690;SDS011;49837;57.280;27.070;2023-04-25T05:47:53;7.6;;;3.0;;
63690;SDS011;49837;57.280;27.070;2023-04-25T05:48:53;13.8;;;3.5;;
63690;SDS011;49837;57.280;27.070;2023-04-25T05:49:54;17.8;;;4.7;;
63690;SDS011;49837;57.280;27.070;2023-04-25T05:50:55;14.9;;;3.9;;
63690;SDS011;49837;57.280;27.070;2023-04-25T05:51:55;8.2;;;3.6;;
63690;SDS011;49837;57.280;27.070;2023-04-25T05:52:55;16.6;;;4.0;;
63690;SDS011;49837;57.280;27.070;2023-04-25T05:53:56;16.6;;;3.7;;
63690;SDS011;49837;57.280;27.070;2023-04-25T05:54:56;8.9;;;3.2;;
63690;SDS011;49837;57.280;27.070;2023-04-25T05:55:57;9.5;;;3.2;;
63690;SDS011;49837;57.280;27.070;2023-04-25T05:56:57;6.9;;;3.4;;
63690;SDS011;49837;57.280;27.070;2023-04-25T05:57:58;6.5;;;3.2;;
63690;SDS011;49837;57.280;27.070;2023-04-25T05:58:58;7.0;;;3.4;;
63690;SDS011;49837;57.280;27.070;2023-04-25T05:59:59;6.8;;;3.3;;
63690;SDS011;49837;57.280;27.070;2023-04-25T06:00:59;5.9;;;3.3;;
63690;SDS011;49837;57.280;27.070;2023-04-25T06:01:59;5.5;;;3.2;;
63690;SDS011;49837;57.280;27.070;2023-04-25T06:03:00;5.7;;;2.7;;
63690;SDS011;49837;57.280;27.070;2023-04-25T06:04:00;6.6;;;3.2;;
63690;SDS011;49837;57.280;27.070;2023-04-25T06:05:01;5.0;;;3.2;;
63690;SDS011;49837;57.280;27.070;2023-04-25T06:06:01;8.6;;;3.2;;
63690;SDS011;49837;57.280;27.070;2023-04-25T06:07:02;5.6;;;3.1;;